createdAt,value
2023-01-06T00:01:15.571Z,94874.09
2023-01-06T00:03:42.437Z,94866.81
2023-01-06T00:06:11.283Z,94869.41
2023-01-06T00:08:38.024Z,94862.66
2023-01-06T00:11:12.951Z,94867.34
2023-01-06T00:13:40.525Z,94863.16
2023-01-06T00:16:09.883Z,94856.44
2023-01-06T00:18:36.441Z,94853.06
2023-01-06T00:21:03.985Z,94854.88
2023-01-06T00:23:30.438Z,94851.75
2023-01-06T00:25:56.887Z,94843.97
2023-01-06T00:28:23.427Z,94842.97
2023-01-06T00:30:49.879Z,94842.72
2023-01-06T00:33:16.344Z,94832.59
2023-01-06T00:35:42.889Z,94833.63
2023-01-06T00:38:09.386Z,94837.81
2023-01-06T00:40:37.081Z,94833.63
2023-01-06T00:43:04.474Z,94838.31
2023-01-06T00:45:31.416Z,94838.56
2023-01-06T00:47:58.025Z,94841.66
2023-01-06T00:50:24.679Z,94842.41
2023-01-06T00:52:51.244Z,94848.09
2023-01-06T00:55:17.755Z,94850.97
2023-01-06T00:57:44.233Z,94834.63
2023-01-06T01:00:12.568Z,94834.63
2023-01-06T01:02:39.054Z,94836.19
2023-01-06T01:05:05.716Z,94829.16
2023-01-06T01:07:32.135Z,94830.19
2023-01-06T01:09:58.586Z,94825.78
2023-01-06T01:12:25.066Z,94816.69
2023-01-06T01:14:54.183Z,94823.72
2023-01-06T01:17:29.104Z,94824.75
2023-01-06T01:19:57.672Z,94823.97
2023-01-06T01:22:25.577Z,94820.63
2023-01-06T01:24:51.986Z,94820.13
2023-01-06T01:27:18.556Z,94819.56
2023-01-06T01:29:45.345Z,94822.22
2023-01-06T01:32:12.111Z,94819.63
2023-01-06T01:34:38.752Z,94821.97
2023-01-06T01:37:05.255Z,94823.78
2023-01-06T01:39:32.196Z,94820.13
2023-01-06T01:41:59.000Z,94818.81
2023-01-06T01:44:55.356Z,94814.38
2023-01-06T01:47:27.267Z,94820.38
2023-01-06T01:49:57.906Z,94811.28
2023-01-06T01:52:25.742Z,94814.94
2023-01-06T01:54:55.130Z,94816.00
2023-01-06T01:57:27.968Z,94820.16
2023-01-06T01:59:55.609Z,94813.88
2023-01-06T02:02:23.254Z,94814.94
2023-01-06T02:04:54.355Z,94812.34
2023-01-06T02:07:25.097Z,94815.97
2023-01-06T02:10:02.399Z,94803.00
2023-01-06T02:12:31.687Z,94800.38
2023-01-06T02:14:58.181Z,94797.56
2023-01-06T02:18:02.676Z,94790.28
2023-01-06T02:20:38.879Z,94801.19
2023-01-06T02:23:24.086Z,94790.56
2023-01-06T02:26:28.204Z,94794.47
2023-01-06T02:29:29.076Z,94791.09
2023-01-06T02:32:15.093Z,94785.13
2023-01-06T02:35:00.504Z,94781.22
2023-01-06T02:37:45.745Z,94778.63
2023-01-06T02:40:15.558Z,94782.53
2023-01-06T02:43:00.881Z,94778.13
2023-01-06T02:45:52.596Z,94782.00
2023-01-06T02:48:48.665Z,94772.41
2023-01-06T02:51:24.543Z,94779.94
2023-01-06T02:54:08.565Z,94775.53
2023-01-06T02:56:45.456Z,94782.28
2023-01-06T02:59:23.315Z,94782.28
2023-01-06T03:01:53.191Z,94777.09
2023-01-06T03:04:27.728Z,94775.53
2023-01-06T03:06:58.435Z,94765.38
2023-01-06T03:09:31.479Z,94770.34
2023-01-06T03:12:02.545Z,94769.56
2023-01-06T03:14:43.629Z,94766.19
2023-01-06T03:17:10.615Z,94767.47
2023-01-06T03:19:37.503Z,94762.28
2023-01-06T03:22:08.051Z,94765.13
2023-01-06T03:24:35.817Z,94762.50
2023-01-06T03:27:03.697Z,94761.75
2023-01-06T03:29:30.380Z,94764.59
2023-01-06T03:32:18.367Z,94762.25
2023-01-06T03:35:02.054Z,94763.56
2023-01-06T03:37:41.140Z,94766.66
2023-01-06T03:40:25.830Z,94765.88
2023-01-06T03:43:16.291Z,94766.91
2023-01-06T03:45:56.656Z,94767.44
2023-01-06T03:48:51.165Z,94764.84
2023-01-06T03:51:39.450Z,94765.38
2023-01-06T03:54:27.897Z,94766.13
2023-01-06T03:57:12.724Z,94762.78
2023-01-06T03:59:53.714Z,94768.72
2023-01-06T04:02:22.059Z,94764.59
2023-01-06T04:05:09.741Z,94765.09
2023-01-06T04:07:38.673Z,94761.72
2023-01-06T04:10:07.029Z,94762.50
2023-01-06T04:12:39.881Z,94765.38
2023-01-06T04:15:16.289Z,94763.53
2023-01-06T04:17:45.535Z,94776.25
2023-01-06T04:20:17.003Z,94770.28
2023-01-06T04:22:44.769Z,94769.50
2023-01-06T04:25:11.760Z,94761.72
2023-01-06T04:27:40.050Z,94759.41
2023-01-06T04:30:07.792Z,94760.94
2023-01-06T04:32:34.296Z,94755.75
2023-01-06T04:35:05.129Z,94752.13
2023-01-06T04:37:31.604Z,94750.56
2023-01-06T04:39:57.992Z,94757.81
2023-01-06T04:42:24.412Z,94756.03
2023-01-06T04:44:50.807Z,94762.50
2023-01-06T04:47:17.203Z,94747.44
2023-01-06T04:49:43.657Z,94735.75
2023-01-06T04:52:10.077Z,94732.41
2023-01-06T04:54:36.777Z,94734.44
2023-01-06T04:57:03.381Z,94726.94
2023-01-06T04:59:29.764Z,94736.53
2023-01-06T05:01:56.345Z,94731.56
2023-01-06T05:04:22.803Z,94725.34
2023-01-06T05:06:49.317Z,94725.09
2023-01-06T05:09:15.778Z,94727.16
2023-01-06T05:11:42.201Z,94721.44
2023-01-06T05:14:08.643Z,94721.69
2023-01-06T05:16:35.191Z,94725.31
2023-01-06T05:19:01.970Z,94728.19
2023-01-06T05:21:32.397Z,94729.72
2023-01-06T05:23:59.842Z,94726.88
2023-01-06T05:26:27.879Z,94731.78
2023-01-06T05:28:54.913Z,94730.75
2023-01-06T05:31:21.830Z,94733.34
2023-01-06T05:33:48.521Z,94734.16
2023-01-06T05:36:16.912Z,94727.38
2023-01-06T05:38:43.637Z,94733.34
2023-01-06T05:41:10.167Z,94730.25
2023-01-06T05:43:37.229Z,94721.19
2023-01-06T05:46:08.546Z,94721.19
2023-01-06T05:48:35.360Z,94721.94
2023-01-06T05:51:15.655Z,94727.63
2023-01-06T05:53:44.066Z,94717.78
2023-01-06T05:56:12.834Z,94725.81
2023-01-06T05:58:42.667Z,94721.91
2023-01-06T06:01:16.905Z,94727.88
2023-01-06T06:03:43.551Z,94725.53
2023-01-06T06:06:09.987Z,94720.84
2023-01-06T06:08:36.519Z,94721.38
2023-01-06T06:11:04.582Z,94717.22
2023-01-06T06:13:31.448Z,94724.47
2023-01-06T06:16:09.027Z,94716.16
2023-01-06T06:18:40.722Z,94723.41
2023-01-06T06:21:07.155Z,94727.50
2023-01-06T06:23:33.569Z,94721.31
2023-01-06T06:25:59.980Z,94714.28
2023-01-06T06:28:26.718Z,94720.72
2023-01-06T06:30:55.357Z,94722.28
2023-01-06T06:33:22.022Z,94721.22
2023-01-06T06:35:58.624Z,94720.47
2023-01-06T06:38:25.076Z,94719.66
2023-01-06T06:40:51.489Z,94714.97
2023-01-06T06:43:17.931Z,94713.91
2023-01-06T06:45:45.698Z,94711.31
2023-01-06T06:48:12.215Z,94710.78
2023-01-06T06:50:38.643Z,94720.34
2023-01-06T06:53:05.460Z,94717.47
2023-01-06T06:55:33.029Z,94718.75
2023-01-06T06:57:59.459Z,94716.41
2023-01-06T07:00:26.106Z,94723.34
2023-01-06T07:02:52.608Z,94727.19
2023-01-06T07:05:19.046Z,94734.69
2023-01-06T07:07:45.794Z,94733.88
2023-01-06T07:10:16.090Z,94743.72
2023-01-06T07:12:42.687Z,94743.94
2023-01-06T07:15:09.586Z,94753.50
2023-01-06T07:17:36.004Z,94756.56
2023-01-06T07:20:02.481Z,94751.91
2023-01-06T07:22:29.071Z,94749.84
2023-01-06T07:24:55.474Z,94746.69
2023-01-06T07:27:21.874Z,94739.97
2023-01-06T07:29:48.285Z,94745.91
2023-01-06T07:32:14.691Z,94737.13
2023-01-06T07:34:41.084Z,94741.28
2023-01-06T07:37:07.488Z,94745.41
2023-01-06T07:39:34.418Z,94752.94
2023-01-06T07:42:00.861Z,94746.19
2023-01-06T07:44:27.279Z,94746.19
2023-01-06T07:46:53.704Z,94763.53
2023-01-06T07:49:20.074Z,94765.88
2023-01-06T07:51:46.520Z,94767.41
2023-01-06T07:54:13.063Z,94767.38
2023-01-06T07:56:39.636Z,94766.59
2023-01-06T07:59:06.123Z,94766.59
2023-01-06T08:01:32.772Z,94762.50
2023-01-06T08:03:59.229Z,94755.56
2023-01-06T08:06:25.704Z,94751.22
2023-01-06T08:08:52.100Z,94757.69
2023-01-06T08:11:18.735Z,94761.59
2023-01-06T08:13:45.387Z,94757.72
2023-01-06T08:16:12.421Z,94755.94
2023-01-06T08:18:39.838Z,94759.59
2023-01-06T08:21:10.832Z,94745.13
2023-01-06T08:23:38.224Z,94756.56
2023-01-06T08:26:07.164Z,94758.38
2023-01-06T08:28:33.915Z,94766.72
2023-01-06T08:31:00.510Z,94766.97
2023-01-06T08:33:27.843Z,94764.72
2023-01-06T08:36:02.189Z,94761.91
2023-01-06T08:38:29.817Z,94762.72
2023-01-06T08:40:57.793Z,94757.59
2023-01-06T08:43:24.632Z,94769.56
2023-01-06T08:45:51.305Z,94761.28
2023-01-06T08:48:18.135Z,94764.69
2023-01-06T08:50:44.709Z,94762.38
2023-01-06T08:53:12.745Z,94768.38
2023-01-06T08:55:40.774Z,94771.81
2023-01-06T08:58:08.739Z,94765.59
2023-01-06T09:00:36.639Z,94770.28
2023-01-06T09:03:03.122Z,94774.41
2023-01-06T09:05:29.699Z,94785.06
2023-01-06T09:07:56.121Z,94779.63
2023-01-06T09:10:22.724Z,94798.88
2023-01-06T09:12:49.209Z,94799.91
2023-01-06T09:15:15.775Z,94790.84
2023-01-06T09:17:42.191Z,94799.91
2023-01-06T09:20:09.657Z,94805.09
2023-01-06T09:22:36.111Z,94807.44
2023-01-06T09:25:03.243Z,94808.72
2023-01-06T09:27:29.695Z,94811.34
2023-01-06T09:29:56.097Z,94822.78
2023-01-06T09:32:22.551Z,94825.34
2023-01-06T09:34:48.956Z,94824.03
2023-01-06T09:37:15.408Z,94832.06
2023-01-06T09:39:41.783Z,94831.00
2023-01-06T09:42:28.164Z,94833.09
2023-01-06T09:45:03.205Z,94818.56
2023-01-06T09:47:40.885Z,94824.25
2023-01-06T09:50:16.040Z,94832.81
2023-01-06T09:52:51.199Z,94829.41
2023-01-06T09:55:37.884Z,94836.13
2023-01-06T09:58:15.905Z,94834.50
2023-01-06T10:00:48.059Z,94824.56
2023-01-06T10:03:17.604Z,94829.91
2023-01-06T10:06:01.979Z,94836.34
2023-01-06T10:08:40.254Z,94826.09
2023-01-06T10:11:47.166Z,94819.00
2023-01-06T10:14:33.585Z,94821.47
2023-01-06T10:17:21.003Z,94808.09
2023-01-06T10:19:58.891Z,94809.03
2023-01-06T10:22:45.525Z,94801.41
2023-01-06T10:25:27.676Z,94796.84
2023-01-06T10:28:02.343Z,94793.09
2023-01-06T10:30:44.285Z,94798.28
2023-01-06T10:33:28.081Z,94791.94
2023-01-06T10:35:55.819Z,94798.81
2023-01-06T10:38:28.567Z,94788.47
2023-01-06T10:41:02.207Z,94794.22
2023-01-06T10:43:29.358Z,94787.72
2023-01-06T10:45:56.047Z,94779.41
2023-01-06T10:48:27.058Z,94778.59
2023-01-06T10:50:55.655Z,94776.22
2023-01-06T10:53:22.939Z,94769.75
2023-01-06T10:55:53.462Z,94769.50
2023-01-06T10:58:34.231Z,94762.19
2023-01-06T11:01:12.619Z,94757.28
2023-01-06T11:03:45.733Z,94757.81
2023-01-06T11:06:27.303Z,94760.13
2023-01-06T11:08:53.898Z,94763.03
2023-01-06T11:11:28.186Z,94752.69
2023-01-06T11:14:01.229Z,94758.41
2023-01-06T11:16:30.496Z,94751.13
2023-01-06T11:19:00.745Z,94742.25
2023-01-06T11:21:46.629Z,94731.25
2023-01-06T11:24:18.738Z,94729.13
2023-01-06T11:26:52.553Z,94727.03
2023-01-06T11:29:25.467Z,94726.16
2023-01-06T11:31:52.398Z,94735.72
2023-01-06T11:34:23.771Z,94728.25
2023-01-06T11:36:50.693Z,94732.84
2023-01-06T11:39:28.719Z,94740.09
2023-01-06T11:42:02.192Z,94750.72
2023-01-06T11:44:38.303Z,94741.16
2023-01-06T11:47:22.403Z,94738.06
2023-01-06T11:49:58.995Z,94739.63
2023-01-06T11:52:32.547Z,94735.25
2023-01-06T11:55:05.015Z,94738.72
2023-01-06T11:57:37.673Z,94725.75
2023-01-06T12:00:33.940Z,94735.72
2023-01-06T12:03:17.015Z,94729.78
2023-01-06T12:06:04.399Z,94733.97
2023-01-06T12:09:01.928Z,94731.13
2023-01-06T12:11:47.066Z,94742.31
2023-01-06T12:14:28.486Z,94740.53
2023-01-06T12:17:14.422Z,94741.84
2023-01-06T12:19:48.017Z,94741.06
2023-01-06T12:22:35.066Z,94742.13
2023-01-06T12:25:03.647Z,94743.72
2023-01-06T12:27:36.033Z,94745.03
2023-01-06T12:30:08.593Z,94740.38
2023-01-06T12:32:40.861Z,94734.13
2023-01-06T12:35:15.306Z,94727.91
2023-01-06T12:37:48.256Z,94724.03
2023-01-06T12:40:33.383Z,94729.72
2023-01-06T12:43:28.189Z,94729.78
2023-01-06T12:46:13.394Z,94735.00
2023-01-06T12:48:50.874Z,94734.78
2023-01-06T12:51:23.525Z,94742.31
2023-01-06T12:53:59.763Z,94743.41
2023-01-06T12:56:56.868Z,94747.06
2023-01-06T12:59:29.555Z,94738.75
2023-01-06T13:02:15.988Z,94737.69
2023-01-06T13:04:56.451Z,94736.66
2023-01-06T13:08:00.492Z,94726.25
2023-01-06T13:10:59.428Z,94724.69
2023-01-06T13:13:44.301Z,94723.69
2023-01-06T13:16:16.572Z,94726.53
2023-01-06T13:19:02.775Z,94730.22
2023-01-06T13:21:32.440Z,94723.44
2023-01-06T13:24:11.844Z,94719.06
2023-01-06T13:27:04.372Z,94720.34
2023-01-06T13:30:03.131Z,94713.09
2023-01-06T13:33:08.270Z,94715.97
2023-01-06T13:35:42.816Z,94721.16
2023-01-06T13:38:15.197Z,94723.50
2023-01-06T13:40:42.544Z,94717.00
2023-01-06T13:43:26.479Z,94718.53
2023-01-06T13:45:58.758Z,94726.31
2023-01-06T13:48:30.105Z,94727.41
2023-01-06T13:50:58.294Z,94722.94
2023-01-06T13:53:24.792Z,94712.81
2023-01-06T13:56:33.627Z,94723.22
2023-01-06T13:59:25.007Z,94722.72
2023-01-06T14:01:52.589Z,94727.16
2023-01-06T14:04:39.348Z,94725.56
2023-01-06T14:07:05.821Z,94726.34
2023-01-06T14:09:36.425Z,94721.97
2023-01-06T14:12:11.520Z,94732.59
2023-01-06T14:14:38.993Z,94732.59
2023-01-06T14:17:05.852Z,94732.59
2023-01-06T14:19:38.480Z,94725.31
2023-01-06T14:22:17.529Z,94721.94
2023-01-06T14:24:49.820Z,94714.97
2023-01-06T14:27:16.239Z,94726.34
2023-01-06T14:29:42.979Z,94715.47
2023-01-06T14:32:11.002Z,94733.16
2023-01-06T14:34:42.744Z,94727.44
2023-01-06T14:37:14.086Z,94720.69
2023-01-06T14:39:42.536Z,94727.97
2023-01-06T14:42:21.858Z,94725.38
2023-01-06T14:44:51.879Z,94727.47
2023-01-06T14:47:26.824Z,94719.69
2023-01-06T14:50:02.109Z,94728.00
2023-01-06T14:52:34.549Z,94727.47
2023-01-06T14:55:03.237Z,94728.00
2023-01-06T14:57:29.587Z,94736.59
2023-01-06T15:00:17.886Z,94739.44
2023-01-06T15:02:54.100Z,94739.97
2023-01-06T15:05:25.379Z,94728.81
2023-01-06T15:08:15.116Z,94738.41
2023-01-06T15:10:49.936Z,94744.16
2023-01-06T15:13:24.167Z,94745.97
2023-01-06T15:15:59.422Z,94747.03
2023-01-06T15:18:25.882Z,94754.03
2023-01-06T15:20:55.081Z,94751.16
2023-01-06T15:23:21.987Z,94756.34
2023-01-06T15:25:50.599Z,94758.72
2023-01-06T15:28:25.345Z,94755.31
2023-01-06T15:30:52.320Z,94755.59
2023-01-06T15:33:22.160Z,94764.44
2023-01-06T15:35:50.989Z,94763.66
2023-01-06T15:38:32.747Z,94755.06
2023-01-06T15:40:59.824Z,94750.41
2023-01-06T15:43:27.975Z,94766.78
2023-01-06T15:46:09.780Z,94750.69
2023-01-06T15:48:41.634Z,94764.72
2023-01-06T15:51:14.306Z,94770.69
2023-01-06T15:53:41.463Z,94765.78
2023-01-06T15:56:18.533Z,94765.78
2023-01-06T15:58:48.034Z,94755.91
2023-01-06T16:01:17.495Z,94758.75
2023-01-06T16:03:59.714Z,94761.88
2023-01-06T16:06:31.490Z,94768.13
2023-01-06T16:09:27.112Z,94769.16
2023-01-06T16:11:59.077Z,94766.81
2023-01-06T16:14:28.844Z,94765.25
2023-01-06T16:17:09.322Z,94768.91
2023-01-06T16:19:39.890Z,94768.91
2023-01-06T16:22:18.255Z,94776.72
2023-01-06T16:24:50.801Z,94765.53
2023-01-06T16:27:24.899Z,94770.44
2023-01-06T16:30:12.867Z,94764.75
2023-01-06T16:32:41.445Z,94757.22
2023-01-06T16:35:13.044Z,94762.69
2023-01-06T16:37:39.577Z,94762.69
2023-01-06T16:40:07.275Z,94775.41
2023-01-06T16:42:45.331Z,94778.53
2023-01-06T16:45:28.282Z,94776.97
2023-01-06T16:47:55.601Z,94785.25
2023-01-06T16:50:23.551Z,94777.75
2023-01-06T16:53:10.233Z,94781.13
2023-01-06T16:55:38.592Z,94782.16
2023-01-06T16:58:28.332Z,94771.75
2023-01-06T17:00:58.149Z,94773.31
2023-01-06T17:03:34.776Z,94769.94
2023-01-06T17:06:01.304Z,94784.50
2023-01-06T17:08:29.822Z,94772.28
2023-01-06T17:10:59.691Z,94779.81
2023-01-06T17:13:35.942Z,94785.28
2023-01-06T17:16:13.510Z,94779.00
2023-01-06T17:18:49.954Z,94788.88
2023-01-06T17:21:24.596Z,94780.06
2023-01-06T17:24:02.424Z,94784.97
2023-01-06T17:26:29.499Z,94789.38
2023-01-06T17:28:57.663Z,94787.84
2023-01-06T17:31:32.383Z,94779.53
2023-01-06T17:34:09.653Z,94785.25
2023-01-06T17:36:39.709Z,94787.34
2023-01-06T17:39:26.458Z,94783.69
2023-01-06T17:42:21.421Z,94787.34
2023-01-06T17:44:58.999Z,94787.09
2023-01-06T17:47:35.763Z,94785.28
2023-01-06T17:50:19.012Z,94787.88
2023-01-06T17:53:05.395Z,94786.59
2023-01-06T17:55:43.533Z,94793.06
2023-01-06T17:58:18.692Z,94780.63
2023-01-06T18:00:46.274Z,94780.34
2023-01-06T18:03:20.075Z,94781.41
2023-01-06T18:05:49.565Z,94775.94
2023-01-06T18:08:17.416Z,94780.34
2023-01-06T18:10:49.684Z,94782.19
2023-01-06T18:13:16.052Z,94787.38
2023-01-06T18:15:43.936Z,94786.34
2023-01-06T18:18:20.372Z,94782.19
2023-01-06T18:20:47.930Z,94781.91
2023-01-06T18:23:18.437Z,94788.41
2023-01-06T18:25:44.887Z,94773.91
2023-01-06T18:28:18.674Z,94789.47
2023-01-06T18:30:46.606Z,94785.84
2023-01-06T18:33:15.975Z,94784.28
2023-01-06T18:35:43.387Z,94792.06
2023-01-06T18:38:09.886Z,94795.75
2023-01-06T18:40:38.285Z,94799.88
2023-01-06T18:43:23.680Z,94800.41
2023-01-06T18:45:52.957Z,94807.16
2023-01-06T18:48:30.321Z,94799.88
2023-01-06T18:50:59.021Z,94803.25
2023-01-06T18:53:38.778Z,94803.53
2023-01-06T18:56:26.818Z,94803.25
2023-01-06T18:58:56.941Z,94801.44
2023-01-06T19:01:26.679Z,94805.84
2023-01-06T19:04:10.751Z,94808.19
2023-01-06T19:06:41.891Z,94811.56
2023-01-06T19:09:26.929Z,94809.25
2023-01-06T19:12:32.680Z,94806.66
2023-01-06T19:15:10.722Z,94808.19
2023-01-06T19:17:40.999Z,94814.19
2023-01-06T19:20:28.953Z,94804.81
2023-01-06T19:22:56.908Z,94802.50
2023-01-06T19:25:36.779Z,94807.69
2023-01-06T19:28:16.635Z,94805.34
2023-01-06T19:30:45.263Z,94805.63
2023-01-06T19:33:26.743Z,94802.50
2023-01-06T19:36:05.248Z,94795.75
2023-01-06T19:38:36.780Z,94790.81
2023-01-06T19:41:08.791Z,94788.97
2023-01-06T19:43:35.920Z,94785.34
2023-01-06T19:46:12.646Z,94791.06
2023-01-06T19:48:41.263Z,94787.72
2023-01-06T19:51:29.873Z,94784.31
2023-01-06T19:54:00.044Z,94792.13
2023-01-06T19:56:34.166Z,94791.06
2023-01-06T19:59:03.776Z,94796.25
2023-01-06T20:01:32.977Z,94790.03
2023-01-06T20:03:59.929Z,94799.91
2023-01-06T20:06:26.403Z,94799.91
2023-01-06T20:08:53.346Z,94795.50
2023-01-06T20:11:22.237Z,94796.50
2023-01-06T20:13:48.979Z,94793.66
2023-01-06T20:16:15.926Z,94782.75
2023-01-06T20:18:42.583Z,94788.47
2023-01-06T20:21:09.021Z,94789.25
2023-01-06T20:23:35.402Z,94795.22
2023-01-06T20:26:01.809Z,94794.44
2023-01-06T20:28:28.202Z,94799.38
2023-01-06T20:30:54.603Z,94793.13
2023-01-06T20:33:21.002Z,94796.50
2023-01-06T20:35:47.415Z,94795.50
2023-01-06T20:38:13.859Z,94792.63
2023-01-06T20:40:40.280Z,94799.38
2023-01-06T20:43:07.225Z,94798.31
2023-01-06T20:45:34.468Z,94798.84
2023-01-06T20:48:01.030Z,94798.31
2023-01-06T20:50:27.835Z,94800.41
2023-01-06T20:52:54.796Z,94803.00
2023-01-06T20:55:21.233Z,94797.28
2023-01-06T20:57:47.624Z,94795.22
2023-01-06T21:00:14.513Z,94794.94
2023-01-06T21:02:41.094Z,94784.06
2023-01-06T21:05:08.028Z,94787.94
2023-01-06T21:07:35.013Z,94784.31
2023-01-06T21:10:02.247Z,94782.47
2023-01-06T21:12:28.640Z,94787.66
2023-01-06T21:14:55.026Z,94790.03
2023-01-06T21:17:21.782Z,94791.06
2023-01-06T21:19:48.269Z,94786.88
2023-01-06T21:22:14.719Z,94782.75
2023-01-06T21:24:41.204Z,94782.75
2023-01-06T21:27:07.632Z,94776.50
2023-01-06T21:29:34.045Z,94778.06
2023-01-06T21:32:00.476Z,94777.28
2023-01-06T21:34:27.028Z,94778.31
2023-01-06T21:36:53.454Z,94779.88
2023-01-06T21:39:19.925Z,94783.78
2023-01-06T21:42:04.983Z,94776.78
2023-01-06T21:44:31.388Z,94782.47
2023-01-06T21:46:59.613Z,94770.78
2023-01-06T21:49:26.019Z,94768.72
2023-01-06T21:51:54.562Z,94761.44
2023-01-06T21:54:21.412Z,94774.44
2023-01-06T21:56:47.942Z,94769.75
2023-01-06T21:59:14.400Z,94777.31
2023-01-06T22:01:40.923Z,94779.13
2023-01-06T22:04:07.661Z,94773.94
2023-01-06T22:06:36.279Z,94782.25
2023-01-06T22:09:05.529Z,94767.19
2023-01-06T22:11:33.352Z,94774.19
2023-01-06T22:14:00.318Z,94764.59
2023-01-06T22:16:27.508Z,94769.78
2023-01-06T22:18:55.074Z,94770.56
2023-01-06T22:21:21.838Z,94765.09
2023-01-06T22:23:49.212Z,94776.78
2023-01-06T22:26:15.651Z,94769.25
2023-01-06T22:28:42.023Z,94769.00
2023-01-06T22:31:08.450Z,94762.50
2023-01-06T22:33:34.884Z,94771.06
2023-01-06T22:36:01.290Z,94767.69
2023-01-06T22:38:27.775Z,94773.38
2023-01-06T22:40:54.203Z,94756.00
2023-01-06T22:43:21.541Z,94769.22
2023-01-06T22:45:54.942Z,94768.47
2023-01-06T22:48:21.401Z,94771.06
2023-01-06T22:50:56.494Z,94764.03
2023-01-06T22:53:22.886Z,94765.09
2023-01-06T22:56:03.467Z,94772.34
2023-01-06T22:58:30.824Z,94765.59
2023-01-06T23:00:57.304Z,94765.59
2023-01-06T23:03:24.313Z,94767.69
2023-01-06T23:06:05.169Z,94758.09
2023-01-06T23:08:33.670Z,94752.63
2023-01-06T23:11:03.549Z,94760.66
2023-01-06T23:13:30.891Z,94751.84
2023-01-06T23:16:03.491Z,94754.44
2023-01-06T23:18:32.264Z,94753.41
2023-01-06T23:21:02.071Z,94739.38
2023-01-06T23:23:30.473Z,94740.16
2023-01-06T23:26:05.064Z,94739.13
2023-01-06T23:28:32.429Z,94745.84
2023-01-06T23:31:28.769Z,94736.53
2023-01-06T23:33:57.483Z,94731.31
2023-01-06T23:36:27.123Z,94738.56
2023-01-06T23:38:55.207Z,94740.66
2023-01-06T23:41:24.094Z,94736.53
2023-01-06T23:43:51.285Z,94739.66
2023-01-06T23:46:20.506Z,94740.41
2023-01-06T23:48:47.747Z,94729.28
2023-01-06T23:51:15.543Z,94726.91
2023-01-06T23:53:42.754Z,94737.31
2023-01-06T23:56:12.694Z,94730.81
2023-01-06T23:58:40.973Z,94724.06
